Time;durP1;ratioP1;P1;durP2;ratioP2;P2;SDS_P1;SDS_P2;PMS_P1;PMS_P2;Temp;Humidity;BMP_temperature;BMP_pressure;BME280_temperature;BME280_humidity;BME280_pressure;Samples;Min_cycle;Max_cycle;Signal;HPM_P1;HPM_P2
2022/01/01 00:01:59;;;;;;;86.03;35.40;;;;;;;;;;4983233;28;20478;-86
2022/01/01 00:04:25;;;;;;;65.85;28.90;;;;;;;;;;4969836;28;20391;-85
2022/01/01 00:06:51;;;;;;;73.65;25.60;;;;;;;;;;4971932;28;20038;-84
2022/01/01 00:09:17;;;;;;;59.28;25.70;;;;;;;;;;4986095;28;20033;-85
2022/01/01 00:11:43;;;;;;;40.03;14.40;;;;;;;;;;4974644;28;20031;-85
2022/01/01 00:14:09;;;;;;;78.05;29.75;;;;;;;;;;4973582;28;20052;-85
2022/01/01 00:16:35;;;;;;;74.35;27.20;;;;;;;;;;4965041;28;20525;-86
2022/01/01 00:19:01;;;;;;;64.72;20.77;;;;;;;;;;4960534;28;20027;-85
2022/01/01 00:21:28;;;;;;;74.00;29.50;;;;;;;;;;4968589;28;20164;-85
2022/01/01 00:23:54;;;;;;;79.55;27.60;;;;;;;;;;4966455;28;20030;-85
2022/01/01 00:26:20;;;;;;;64.68;26.15;;;;;;;;;;4967013;28;20030;-85
2022/01/01 00:28:46;;;;;;;85.82;31.92;;;;;;;;;;4960627;28;20562;-86
2022/01/01 00:31:12;;;;;;;53.60;16.83;;;;;;;;;;4969568;28;20410;-85
2022/01/01 00:33:38;;;;;;;64.18;21.60;;;;;;;;;;4959050;28;20491;-85
2022/01/01 00:36:05;;;;;;;50.42;20.92;;;;;;;;;;4983356;28;20026;-84
2022/01/01 00:38:31;;;;;;;63.40;25.27;;;;;;;;;;4961606;28;20086;-85
2022/01/01 00:40:57;;;;;;;41.35;15.38;;;;;;;;;;4972874;28;20030;-84
2022/01/01 00:43:24;;;;;;;72.93;24.70;;;;;;;;;;4976698;28;20533;-80
2022/01/01 00:45:50;;;;;;;65.53;24.63;;;;;;;;;;4968099;28;20536;-81
2022/01/01 00:48:16;;;;;;;78.47;22.52;;;;;;;;;;4961181;28;20129;-80
2022/01/01 00:50:42;;;;;;;46.45;16.98;;;;;;;;;;4960796;28;20057;-81
2022/01/01 00:53:08;;;;;;;65.07;19.45;;;;;;;;;;4968934;28;20057;-80
2022/01/01 00:55:34;;;;;;;55.25;17.65;;;;;;;;;;4964684;28;20391;-80
2022/01/01 00:58:01;;;;;;;58.83;19.27;;;;;;;;;;4967927;28;20050;-80
2022/01/01 01:00:27;;;;;;;80.90;24.27;;;;;;;;;;4963235;28;20395;-80
2022/01/01 01:02:53;;;;;;;80.35;22.60;;;;;;;;;;4965687;28;20070;-81
2022/01/01 01:05:27;;;;;;;92.90;31.35;;;;;;;;;;4956108;28;20085;-80
2022/01/01 01:07:59;;;;;;;84.47;25.90;;;;;;;;;;4962102;28;20070;-80
2022/01/01 01:10:25;;;;;;;62.53;22.75;;;;;;;;;;4957075;28;20406;-80
2022/01/01 01:12:53;;;;;;;72.05;19.05;;;;;;;;;;4942797;28;20043;-80
2022/01/01 01:15:19;;;;;;;55.35;17.17;;;;;;;;;;4941529;28;20053;-80
2022/01/01 01:17:50;;;;;;;59.88;23.02;;;;;;;;;;4940025;28;20458;-80
2022/01/01 01:20:16;;;;;;;68.05;26.23;;;;;;;;;;4933834;28;20118;-80
2022/01/01 01:22:43;;;;;;;61.13;16.85;;;;;;;;;;4944318;28;20187;-80
2022/01/01 01:25:09;;;;;;;67.50;20.92;;;;;;;;;;4945210;28;20034;-79
2022/01/01 01:27:36;;;;;;;73.65;22.95;;;;;;;;;;4944372;28;20568;-80
2022/01/01 01:30:06;;;;;;;67.07;18.63;;;;;;;;;;4956789;28;20428;-80
2022/01/01 01:32:33;;;;;;;60.50;17.88;;;;;;;;;;4947913;28;20657;-80
2022/01/01 01:34:59;;;;;;;81.43;19.55;;;;;;;;;;4957717;28;20383;-80
2022/01/01 01:37:25;;;;;;;70.57;19.88;;;;;;;;;;4947369;28;20023;-80
2022/01/01 01:39:51;;;;;;;74.50;22.23;;;;;;;;;;4942347;28;20472;-81
2022/01/01 01:42:17;;;;;;;66.75;19.63;;;;;;;;;;4946223;28;20122;-80
2022/01/01 01:44:47;;;;;;;63.70;19.77;;;;;;;;;;4942955;28;20465;-81
2022/01/01 01:47:18;;;;;;;54.30;17.77;;;;;;;;;;4938647;28;20118;-80
2022/01/01 01:49:46;;;;;;;53.78;14.43;;;;;;;;;;4956702;28;20030;-79
2022/01/01 01:52:15;;;;;;;61.97;17.30;;;;;;;;;;4939569;28;20032;-80
2022/01/01 01:54:41;;;;;;;44.58;15.20;;;;;;;;;;4946166;28;20031;-79
2022/01/01 01:57:09;;;;;;;54.30;15.32;;;;;;;;;;4941267;28;20438;-79
2022/01/01 01:59:35;;;;;;;80.72;24.17;;;;;;;;;;4940335;28;20606;-80
2022/01/01 02:02:01;;;;;;;77.53;23.95;;;;;;;;;;4942584;28;20678;-80
2022/01/01 02:04:27;;;;;;;68.22;18.77;;;;;;;;;;4941884;28;20038;-80
2022/01/01 02:06:53;;;;;;;84.45;22.35;;;;;;;;;;4940388;28;20411;-80
2022/01/01 02:09:19;;;;;;;72.93;19.40;;;;;;;;;;4944210;28;20046;-80
2022/01/01 02:11:46;;;;;;;71.45;18.25;;;;;;;;;;4941752;28;20583;-80
2022/01/01 02:14:22;;;;;;;82.68;19.77;;;;;;;;;;4945047;28;20046;-81
2022/01/01 02:19:21;;;;;;;54.75;12.98;;;;;;;;;;4957447;28;20047;-80
2022/01/01 02:21:47;;;;;;;64.82;21.23;;;;;;;;;;4961853;28;20042;-80
2022/01/01 02:24:13;;;;;;;73.25;20.08;;;;;;;;;;4937397;28;20284;-80
2022/01/01 02:26:39;;;;;;;83.88;25.70;;;;;;;;;;4941475;28;20037;-80
2022/01/01 02:29:05;;;;;;;49.60;15.73;;;;;;;;;;4940288;28;20046;-80
2022/01/01 02:31:32;;;;;;;96.07;28.55;;;;;;;;;;4948539;28;20031;-79
2022/01/01 02:34:06;;;;;;;87.40;29.02;;;;;;;;;;4940685;28;20464;-80
2022/01/01 02:36:37;;;;;;;104.63;30.40;;;;;;;;;;4943695;28;20171;-81
2022/01/01 02:39:10;;;;;;;58.38;19.05;;;;;;;;;;4941167;28;20554;-81
2022/01/01 02:41:36;;;;;;;71.93;25.10;;;;;;;;;;4941351;28;20121;-80
2022/01/01 02:44:03;;;;;;;73.43;23.25;;;;;;;;;;4939003;28;20043;-80
2022/01/01 02:46:29;;;;;;;77.28;28.20;;;;;;;;;;4938773;28;20026;-81
2022/01/01 02:48:55;;;;;;;81.75;23.13;;;;;;;;;;4958841;28;20041;-81
2022/01/01 02:51:21;;;;;;;87.93;23.83;;;;;;;;;;4944817;28;20037;-80
2022/01/01 02:53:47;;;;;;;110.38;35.47;;;;;;;;;;4945677;28;20572;-80
2022/01/01 02:56:13;;;;;;;90.07;23.30;;;;;;;;;;4938349;28;20479;-80
2022/01/01 02:58:40;;;;;;;73.03;19.23;;;;;;;;;;4939531;28;20061;-80
2022/01/01 03:01:06;;;;;;;83.65;23.73;;;;;;;;;;4942091;28;20054;-80
2022/01/01 03:03:32;;;;;;;75.22;21.88;;;;;;;;;;4942944;28;20030;-80
2022/01/01 03:05:58;;;;;;;103.50;27.92;;;;;;;;;;4938759;28;20454;-81
2022/01/01 03:08:24;;;;;;;44.88;15.60;;;;;;;;;;4935548;28;20499;-80
2022/01/01 03:10:51;;;;;;;105.53;26.08;;;;;;;;;;4942260;28;20503;-80
2022/01/01 03:13:17;;;;;;;82.43;21.55;;;;;;;;;;4938088;28;20038;-80
2022/01/01 03:15:43;;;;;;;79.40;22.10;;;;;;;;;;4943440;28;20090;-79
2022/01/01 03:18:10;;;;;;;97.70;25.42;;;;;;;;;;4939377;28;20529;-80
2022/01/01 03:20:36;;;;;;;76.93;21.15;;;;;;;;;;4943284;28;20039;-80
2022/01/01 03:23:03;;;;;;;63.38;19.73;;;;;;;;;;4941588;28;20570;-80
2022/01/01 03:25:29;;;;;;;91.47;25.63;;;;;;;;;;4935655;28;20479;-80
2022/01/01 03:27:55;;;;;;;95.45;26.17;;;;;;;;;;4942852;28;20067;-81
2022/01/01 03:30:21;;;;;;;65.18;18.90;;;;;;;;;;4940174;28;20265;-80
2022/01/01 03:32:50;;;;;;;96.28;26.33;;;;;;;;;;4939525;28;20043;-80
2022/01/01 03:35:16;;;;;;;76.15;21.75;;;;;;;;;;4940012;28;20034;-80
2022/01/01 03:37:42;;;;;;;77.53;23.25;;;;;;;;;;4959608;28;20587;-81
2022/01/01 03:40:09;;;;;;;76.00;21.85;;;;;;;;;;4940395;28;20053;-80
2022/01/01 03:42:35;;;;;;;82.60;25.67;;;;;;;;;;4941036;28;20058;-80
2022/01/01 03:45:01;;;;;;;58.33;17.05;;;;;;;;;;4936998;28;20473;-80
2022/01/01 03:47:27;;;;;;;91.35;25.60;;;;;;;;;;4941899;28;20452;-81
2022/01/01 03:49:53;;;;;;;99.82;26.38;;;;;;;;;;4946267;28;20055;-80
2022/01/01 03:52:19;;;;;;;87.97;22.40;;;;;;;;;;4941913;28;20427;-79
2022/01/01 03:54:45;;;;;;;86.90;26.55;;;;;;;;;;4941018;28;20023;-80
2022/01/01 03:57:11;;;;;;;82.90;24.05;;;;;;;;;;4941842;28;20031;-80
2022/01/01 03:59:37;;;;;;;102.20;24.35;;;;;;;;;;4943268;28;20356;-79
2022/01/01 04:02:03;;;;;;;62.67;17.40;;;;;;;;;;4939055;28;20041;-80
2022/01/01 04:04:29;;;;;;;106.15;26.60;;;;;;;;;;4942458;28;20084;-81
2022/01/01 04:06:55;;;;;;;80.28;22.20;;;;;;;;;;4939037;28;20081;-80
2022/01/01 04:09:21;;;;;;;70.15;23.75;;;;;;;;;;4941783;28;20031;-80
2022/01/01 04:11:48;;;;;;;80.68;25.05;;;;;;;;;;4952936;28;20026;-80
2022/01/01 04:14:16;;;;;;;91.57;24.67;;;;;;;;;;4952868;28;20015;-81
2022/01/01 04:16:43;;;;;;;85.47;23.23;;;;;;;;;;4939814;28;20059;-80
2022/01/01 04:19:09;;;;;;;66.55;18.65;;;;;;;;;;4941166;28;20287;-80
2022/01/01 04:21:35;;;;;;;76.40;21.42;;;;;;;;;;4939050;28;20529;-80
2022/01/01 04:24:02;;;;;;;81.22;22.95;;;;;;;;;;4935533;28;20023;-80
2022/01/01 04:26:28;;;;;;;101.03;23.02;;;;;;;;;;4957445;28;20117;-80
2022/01/01 04:28:54;;;;;;;70.07;18.63;;;;;;;;;;4936042;28;20030;-80
2022/01/01 04:31:20;;;;;;;75.65;21.90;;;;;;;;;;4940624;28;20035;-80
2022/01/01 04:33:46;;;;;;;52.75;17.33;;;;;;;;;;4954723;28;20484;-81
2022/01/01 04:36:13;;;;;;;76.40;21.65;;;;;;;;;;4940485;28;20026;-80
2022/01/01 04:38:41;;;;;;;69.50;18.98;;;;;;;;;;4938615;28;20031;-80
2022/01/01 04:41:14;;;;;;;61.05;18.40;;;;;;;;;;4944526;28;20038;-80
2022/01/01 04:43:42;;;;;;;74.00;20.60;;;;;;;;;;4944584;28;20038;-80
2022/01/01 04:46:08;;;;;;;76.30;21.85;;;;;;;;;;4943610;28;20429;-80
2022/01/01 04:48:37;;;;;;;67.28;22.88;;;;;;;;;;4943496;28;20510;-80
2022/01/01 04:51:07;;;;;;;82.50;22.83;;;;;;;;;;4943415;28;20094;-80
2022/01/01 04:53:34;;;;;;;69.47;24.48;;;;;;;;;;4951768;28;20455;-80
2022/01/01 04:56:04;;;;;;;92.63;29.70;;;;;;;;;;4942135;28;20050;-80
2022/01/01 04:58:30;;;;;;;65.63;22.65;;;;;;;;;;4943226;28;20078;-80
2022/01/01 05:00:56;;;;;;;81.22;25.17;;;;;;;;;;4947069;28;20031;-79
2022/01/01 05:03:22;;;;;;;100.28;26.17;;;;;;;;;;4943655;28;20043;-81
2022/01/01 05:05:48;;;;;;;78.65;25.25;;;;;;;;;;4945207;28;20498;-80
2022/01/01 05:08:14;;;;;;;77.90;25.45;;;;;;;;;;4936562;28;20047;-80
2022/01/01 05:10:40;;;;;;;88.25;25.38;;;;;;;;;;4945589;28;20078;-80
2022/01/01 05:13:07;;;;;;;66.07;23.60;;;;;;;;;;4936014;28;20565;-80
2022/01/01 05:15:33;;;;;;;87.13;27.67;;;;;;;;;;4962447;28;20592;-79
2022/01/01 05:17:59;;;;;;;77.90;24.80;;;;;;;;;;4942144;28;20055;-80
2022/01/01 05:20:25;;;;;;;101.97;31.85;;;;;;;;;;4943136;28;20058;-81
2022/01/01 05:22:52;;;;;;;84.25;29.73;;;;;;;;;;4958801;28;20114;-80
2022/01/01 05:25:18;;;;;;;99.20;33.83;;;;;;;;;;4940108;28;20183;-80
2022/01/01 05:27:44;;;;;;;77.25;28.08;;;;;;;;;;4940009;28;20543;-80
2022/01/01 05:30:10;;;;;;;99.32;33.47;;;;;;;;;;4952648;28;20593;-80
2022/01/01 05:32:36;;;;;;;98.38;36.45;;;;;;;;;;4957817;28;20510;-80
2022/01/01 05:35:03;;;;;;;123.05;39.50;;;;;;;;;;4938114;28;20035;-80
2022/01/01 05:37:29;;;;;;;65.75;22.35;;;;;;;;;;4956983;28;20562;-80
2022/01/01 05:39:55;;;;;;;79.25;26.98;;;;;;;;;;4942245;28;20022;-80
2022/01/01 05:42:21;;;;;;;115.82;41.28;;;;;;;;;;4942838;28;20030;-81
2022/01/01 05:44:47;;;;;;;86.15;30.75;;;;;;;;;;4945421;28;20027;-80
2022/01/01 05:47:13;;;;;;;98.05;31.63;;;;;;;;;;4941156;28;20049;-80
2022/01/01 05:49:39;;;;;;;99.13;39.00;;;;;;;;;;4941823;28;20051;-80
2022/01/01 05:52:05;;;;;;;83.78;32.30;;;;;;;;;;4941300;28;20126;-80
2022/01/01 05:54:32;;;;;;;83.85;30.73;;;;;;;;;;4961231;28;20398;-80
2022/01/01 05:56:59;;;;;;;115.55;39.92;;;;;;;;;;4937662;28;20400;-80
2022/01/01 05:59:25;;;;;;;119.55;40.28;;;;;;;;;;4940982;28;20031;-80
2022/01/01 06:01:51;;;;;;;102.70;38.80;;;;;;;;;;4957914;28;20120;-80
2022/01/01 06:04:17;;;;;;;94.10;36.33;;;;;;;;;;4946148;28;20391;-80
2022/01/01 06:06:50;;;;;;;97.70;32.25;;;;;;;;;;4949364;28;20590;-80
2022/01/01 06:09:29;;;;;;;97.35;33.70;;;;;;;;;;4899764;28;20563;-80
2022/01/01 06:11:55;;;;;;;70.93;24.90;;;;;;;;;;4955718;28;20038;-80
2022/01/01 06:14:21;;;;;;;77.15;23.10;;;;;;;;;;4937207;28;20023;-79
2022/01/01 06:16:51;;;;;;;80.93;27.20;;;;;;;;;;4957302;28;20106;-80
2022/01/01 06:19:17;;;;;;;49.28;15.25;;;;;;;;;;4942172;28;20030;-81
2022/01/01 06:21:43;;;;;;;51.97;18.42;;;;;;;;;;4946521;28;20042;-80
2022/01/01 06:24:09;;;;;;;80.47;25.48;;;;;;;;;;4940996;28;20605;-80
2022/01/01 06:26:35;;;;;;;68.07;22.38;;;;;;;;;;4955179;28;20112;-79
2022/01/01 06:29:02;;;;;;;72.63;23.50;;;;;;;;;;4940995;28;20050;-80
2022/01/01 06:31:28;;;;;;;60.88;21.35;;;;;;;;;;4940298;28;20046;-80
2022/01/01 06:33:54;;;;;;;69.38;22.45;;;;;;;;;;4941687;28;20031;-81
2022/01/01 06:36:21;;;;;;;56.42;18.33;;;;;;;;;;4957225;28;20027;-80
2022/01/01 06:38:47;;;;;;;82.78;19.83;;;;;;;;;;4943591;28;20038;-80
2022/01/01 06:41:15;;;;;;;88.65;22.65;;;;;;;;;;4941506;28;20066;-80
2022/01/01 06:43:42;;;;;;;65.30;22.00;;;;;;;;;;4943810;28;20031;-80
2022/01/01 06:46:08;;;;;;;85.20;23.40;;;;;;;;;;4940629;28;20031;-80
2022/01/01 06:48:35;;;;;;;72.32;19.75;;;;;;;;;;4941878;28;20507;-80
2022/01/01 06:51:01;;;;;;;77.38;20.90;;;;;;;;;;4956476;28;20029;-80
2022/01/01 06:53:27;;;;;;;67.55;18.23;;;;;;;;;;4938300;28;20882;-80
2022/01/01 06:55:53;;;;;;;75.38;20.70;;;;;;;;;;4957254;28;20027;-80
2022/01/01 06:58:19;;;;;;;64.40;18.95;;;;;;;;;;4940867;28;20403;-80
2022/01/01 07:00:45;;;;;;;56.03;18.45;;;;;;;;;;4941540;28;20459;-80
2022/01/01 07:03:11;;;;;;;66.90;18.65;;;;;;;;;;4942170;28;20042;-81
2022/01/01 07:05:38;;;;;;;67.22;20.27;;;;;;;;;;4944897;28;20030;-81
2022/01/01 07:08:04;;;;;;;83.82;20.55;;;;;;;;;;4935395;28;20055;-80
2022/01/01 07:10:30;;;;;;;71.28;19.33;;;;;;;;;;4957578;28;20507;-80
2022/01/01 07:12:56;;;;;;;44.67;14.93;;;;;;;;;;4930498;28;20026;-80
2022/01/01 07:15:22;;;;;;;66.68;19.98;;;;;;;;;;4916231;28;20065;-79
2022/01/01 07:17:48;;;;;;;70.38;17.77;;;;;;;;;;4926946;28;20023;-80
2022/01/01 07:20:15;;;;;;;70.20;18.40;;;;;;;;;;4938472;28;20029;-80
2022/01/01 07:22:45;;;;;;;69.93;18.90;;;;;;;;;;4924425;28;20090;-81
2022/01/01 07:25:12;;;;;;;72.13;18.23;;;;;;;;;;4932190;28;20115;-80
2022/01/01 07:27:38;;;;;;;70.75;16.42;;;;;;;;;;4926955;28;20653;-80
2022/01/01 07:30:05;;;;;;;81.35;20.52;;;;;;;;;;4923699;28;20028;-80
2022/01/01 07:32:31;;;;;;;68.85;19.85;;;;;;;;;;4936216;28;20126;-80
2022/01/01 07:34:57;;;;;;;51.90;14.57;;;;;;;;;;4925915;28;20656;-79
2022/01/01 07:37:23;;;;;;;73.93;19.42;;;;;;;;;;4927803;28;20039;-80
2022/01/01 07:39:49;;;;;;;64.43;18.08;;;;;;;;;;4919574;28;20492;-80
2022/01/01 07:42:16;;;;;;;69.65;18.27;;;;;;;;;;4920858;28;20041;-81
2022/01/01 07:44:42;;;;;;;77.22;20.38;;;;;;;;;;4920218;29;20028;-80
2022/01/01 07:47:08;;;;;;;65.35;16.92;;;;;;;;;;4937416;28;20039;-81
2022/01/01 07:49:35;;;;;;;76.30;19.42;;;;;;;;;;4936690;28;20036;-80
2022/01/01 07:52:01;;;;;;;60.90;18.38;;;;;;;;;;4926937;29;20090;-80
2022/01/01 07:54:27;;;;;;;66.22;19.13;;;;;;;;;;4937406;28;20495;-80
2022/01/01 07:56:53;;;;;;;69.30;19.10;;;;;;;;;;4920339;29;20050;-81
2022/01/01 07:59:19;;;;;;;60.17;17.50;;;;;;;;;;4924364;29;20027;-80
2022/01/01 08:01:45;;;;;;;61.60;18.50;;;;;;;;;;4931794;28;20035;-80
2022/01/01 08:04:11;;;;;;;66.68;18.75;;;;;;;;;;4926925;28;20040;-81
2022/01/01 08:06:37;;;;;;;70.68;16.85;;;;;;;;;;4923008;28;20031;-80
2022/01/01 08:09:04;;;;;;;63.45;19.92;;;;;;;;;;4920607;28;20035;-81
2022/01/01 08:11:30;;;;;;;83.45;19.33;;;;;;;;;;4941006;28;20538;-81
2022/01/01 08:13:56;;;;;;;74.85;20.98;;;;;;;;;;4940743;28;20086;-79
2022/01/01 08:16:23;;;;;;;74.82;20.48;;;;;;;;;;4943701;28;20031;-81
2022/01/01 08:18:49;;;;;;;56.00;17.25;;;;;;;;;;4940955;28;20412;-79
2022/01/01 08:21:15;;;;;;;72.13;22.17;;;;;;;;;;4942976;28;20035;-81
2022/01/01 08:23:41;;;;;;;65.53;20.42;;;;;;;;;;4959905;28;20535;-80
2022/01/01 08:26:07;;;;;;;79.90;20.88;;;;;;;;;;4955122;28;20487;-80
2022/01/01 08:28:33;;;;;;;54.03;16.50;;;;;;;;;;4956526;28;20479;-80
2022/01/01 08:30:59;;;;;;;68.13;17.08;;;;;;;;;;4949412;28;21368;-80
2022/01/01 08:33:25;;;;;;;67.15;22.65;;;;;;;;;;4946938;28;20054;-80
2022/01/01 08:35:51;;;;;;;64.75;21.30;;;;;;;;;;4945542;28;20034;-80
2022/01/01 08:38:17;;;;;;;76.40;21.70;;;;;;;;;;4940145;28;20468;-80
2022/01/01 08:40:43;;;;;;;81.60;21.98;;;;;;;;;;4943960;28;20027;-80
2022/01/01 08:43:10;;;;;;;71.65;20.75;;;;;;;;;;4950311;28;20380;-79
2022/01/01 08:45:37;;;;;;;65.65;20.95;;;;;;;;;;4960880;28;20537;-80
2022/01/01 08:48:04;;;;;;;65.47;19.08;;;;;;;;;;4962209;28;20066;-80
2022/01/01 08:50:30;;;;;;;70.30;19.88;;;;;;;;;;4960074;28;20483;-80
2022/01/01 08:52:57;;;;;;;77.15;23.02;;;;;;;;;;4947333;28;20039;-80
2022/01/01 08:55:23;;;;;;;81.10;23.20;;;;;;;;;;4945457;28;20030;-80
2022/01/01 08:57:49;;;;;;;72.07;23.88;;;;;;;;;;4939392;28;20039;-81
2022/01/01 09:00:16;;;;;;;66.38;22.98;;;;;;;;;;4959748;28;20041;-80
2022/01/01 09:02:42;;;;;;;64.60;21.15;;;;;;;;;;4946525;28;20073;-80
2022/01/01 09:05:09;;;;;;;64.38;21.23;;;;;;;;;;4962428;28;20341;-80
2022/01/01 09:07:36;;;;;;;46.70;12.43;;;;;;;;;;4942990;28;20035;-80
2022/01/01 09:10:03;;;;;;;62.83;22.95;;;;;;;;;;4948632;28;20085;-81
2022/01/01 09:12:35;;;;;;;71.45;21.30;;;;;;;;;;4927081;28;20441;-80
2022/01/01 09:15:02;;;;;;;59.67;22.23;;;;;;;;;;4924038;29;20043;-80
2022/01/01 09:17:28;;;;;;;68.65;20.38;;;;;;;;;;4926128;29;20098;-80
2022/01/01 09:19:55;;;;;;;77.65;22.70;;;;;;;;;;4937716;28;20392;-80
2022/01/01 09:22:22;;;;;;;64.18;23.55;;;;;;;;;;4927350;29;20042;-80
2022/01/01 09:24:48;;;;;;;61.20;20.65;;;;;;;;;;4922953;29;20488;-80
2022/01/01 09:27:14;;;;;;;29.58;8.02;;;;;;;;;;4924381;29;20024;-80
2022/01/01 09:29:40;;;;;;;68.13;21.98;;;;;;;;;;4932019;28;20055;-80
2022/01/01 09:32:06;;;;;;;51.28;15.80;;;;;;;;;;4923197;29;20167;-80
2022/01/01 09:34:32;;;;;;;53.70;19.50;;;;;;;;;;4920685;28;20110;-81
2022/01/01 09:36:58;;;;;;;55.67;20.45;;;;;;;;;;4928502;28;20091;-79
2022/01/01 09:39:25;;;;;;;59.58;21.27;;;;;;;;;;4924918;28;20478;-80
2022/01/01 09:41:51;;;;;;;57.17;21.00;;;;;;;;;;4937570;28;20019;-80
2022/01/01 09:44:18;;;;;;;70.50;21.77;;;;;;;;;;4940535;28;20607;-81
2022/01/01 09:46:46;;;;;;;55.30;21.25;;;;;;;;;;4923215;29;20106;-81
2022/01/01 09:49:15;;;;;;;42.47;16.10;;;;;;;;;;4924130;29;20031;-81
2022/01/01 09:51:42;;;;;;;50.75;18.90;;;;;;;;;;4921467;28;20033;-81
2022/01/01 09:54:08;;;;;;;47.55;15.70;;;;;;;;;;4926431;28;20035;-80
2022/01/01 09:56:35;;;;;;;54.55;17.88;;;;;;;;;;4926310;29;20050;-81
2022/01/01 09:59:01;;;;;;;45.53;18.15;;;;;;;;;;4930930;28;20159;-80
2022/01/01 10:01:27;;;;;;;41.67;15.13;;;;;;;;;;4917113;28;20696;-81
2022/01/01 10:03:56;;;;;;;40.50;16.40;;;;;;;;;;4920091;28;20042;-80
2022/01/01 10:06:23;;;;;;;42.47;17.60;;;;;;;;;;4923604;29;20073;-80
2022/01/01 10:08:59;;;;;;;38.20;15.63;;;;;;;;;;4922662;28;20116;-81
2022/01/01 10:11:26;;;;;;;42.97;16.95;;;;;;;;;;4950136;28;20105;-81
2022/01/01 10:13:52;;;;;;;43.17;16.35;;;;;;;;;;4938529;28;20023;-81
2022/01/01 10:16:18;;;;;;;44.40;16.63;;;;;;;;;;4959911;28;20109;-80
2022/01/01 10:18:46;;;;;;;40.20;15.48;;;;;;;;;;4941052;28;20125;-80
2022/01/01 10:21:13;;;;;;;51.42;16.10;;;;;;;;;;4948597;28;20039;-80
2022/01/01 10:23:41;;;;;;;39.85;14.35;;;;;;;;;;4941270;28;20031;-81
2022/01/01 10:29:26;;;;;;;26.20;9.82;;;;;;;;;;4955471;28;20057;-81
2022/01/01 10:31:58;;;;;;;30.77;11.25;;;;;;;;;;4937919;28;20057;-81
2022/01/01 10:34:34;;;;;;;29.27;10.55;;;;;;;;;;4948362;28;20043;-80
2022/01/01 10:37:01;;;;;;;36.47;12.15;;;;;;;;;;4942224;28;20438;-81
2022/01/01 10:39:28;;;;;;;29.10;9.77;;;;;;;;;;4939966;28;20121;-81
2022/01/01 10:41:59;;;;;;;36.17;12.90;;;;;;;;;;4942732;28;20325;-81
2022/01/01 10:44:39;;;;;;;30.63;10.70;;;;;;;;;;4940370;28;20105;-80
2022/01/01 10:47:27;;;;;;;39.90;12.30;;;;;;;;;;4939556;28;20031;-81
2022/01/01 10:50:14;;;;;;;36.47;12.10;;;;;;;;;;4941485;28;20114;-81
2022/01/01 10:52:47;;;;;;;30.38;12.35;;;;;;;;;;4943349;28;20395;-81
2022/01/01 10:55:14;;;;;;;33.10;11.82;;;;;;;;;;4944196;28;20135;-80
2022/01/01 10:57:42;;;;;;;39.95;13.07;;;;;;;;;;4954734;28;20054;-80
2022/01/01 11:00:09;;;;;;;28.83;10.18;;;;;;;;;;4944719;28;20078;-80
2022/01/01 11:02:37;;;;;;;26.65;10.93;;;;;;;;;;4941539;28;20035;-80
2022/01/01 11:05:04;;;;;;;31.35;10.77;;;;;;;;;;4944621;28;20046;-80
2022/01/01 11:07:31;;;;;;;35.58;11.68;;;;;;;;;;4954738;28;20039;-81
2022/01/01 11:09:58;;;;;;;32.97;11.77;;;;;;;;;;4946749;28;20459;-80
2022/01/01 11:12:37;;;;;;;31.23;12.73;;;;;;;;;;4935865;28;20432;-81
2022/01/01 11:15:04;;;;;;;27.20;9.32;;;;;;;;;;4920106;28;20028;-81
2022/01/01 11:17:31;;;;;;;35.47;12.73;;;;;;;;;;4921507;29;20115;-80
2022/01/01 11:19:57;;;;;;;35.38;11.95;;;;;;;;;;4913968;29;20034;-80
2022/01/01 11:22:23;;;;;;;31.52;12.73;;;;;;;;;;4925197;29;20043;-80
2022/01/01 11:24:49;;;;;;;30.40;12.98;;;;;;;;;;4916606;29;20047;-81
2022/01/01 11:27:16;;;;;;;27.58;11.88;;;;;;;;;;4923889;29;20627;-80
2022/01/01 11:29:49;;;;;;;30.13;10.70;;;;;;;;;;4915868;29;20031;-81
2022/01/01 11:32:16;;;;;;;27.23;10.60;;;;;;;;;;4922478;29;20103;-81
2022/01/01 11:34:44;;;;;;;26.98;10.82;;;;;;;;;;4925994;29;20119;-81
2022/01/01 11:37:14;;;;;;;27.58;10.18;;;;;;;;;;4914326;28;20031;-81
2022/01/01 11:39:40;;;;;;;34.63;10.93;;;;;;;;;;4919884;29;20109;-80
2022/01/01 11:42:11;;;;;;;24.33;10.20;;;;;;;;;;4924113;29;20027;-80
2022/01/01 11:44:37;;;;;;;33.83;10.73;;;;;;;;;;4921154;29;20460;-80
2022/01/01 11:47:05;;;;;;;28.90;11.07;;;;;;;;;;4937641;28;20035;-80
2022/01/01 11:49:32;;;;;;;25.20;9.35;;;;;;;;;;4937795;28;20579;-80
2022/01/01 11:51:59;;;;;;;30.05;11.13;;;;;;;;;;4923353;28;20579;-80
2022/01/01 11:54:36;;;;;;;27.13;9.07;;;;;;;;;;4937397;28;20390;-81
2022/01/01 11:57:06;;;;;;;35.03;10.30;;;;;;;;;;4926703;29;20102;-80
2022/01/01 11:59:38;;;;;;;28.35;8.68;;;;;;;;;;4928200;28;20023;-80
2022/01/01 12:02:20;;;;;;;20.15;7.72;;;;;;;;;;4942643;28;20518;-81
2022/01/01 12:04:47;;;;;;;28.70;8.30;;;;;;;;;;4923015;28;20371;-81
2022/01/01 12:07:27;;;;;;;18.65;8.10;;;;;;;;;;4926987;28;20107;-80
2022/01/01 12:10:03;;;;;;;19.13;7.05;;;;;;;;;;4921038;28;20492;-80
2022/01/01 12:12:41;;;;;;;22.23;8.00;;;;;;;;;;4946345;28;20051;-81
2022/01/01 12:15:10;;;;;;;23.77;6.63;;;;;;;;;;4926920;28;20078;-80
2022/01/01 12:18:03;;;;;;;18.23;6.88;;;;;;;;;;4922824;28;20070;-80
2022/01/01 12:20:38;;;;;;;21.63;7.00;;;;;;;;;;4929782;28;20050;-80
2022/01/01 12:23:08;;;;;;;16.77;5.30;;;;;;;;;;4940729;28;20142;-80
2022/01/01 12:25:36;;;;;;;7.65;4.03;;;;;;;;;;4922256;28;20481;-80
2022/01/01 12:28:22;;;;;;;18.77;5.70;;;;;;;;;;4923278;28;20039;-81
2022/01/01 12:30:51;;;;;;;13.05;3.97;;;;;;;;;;4930626;28;20050;-80
2022/01/01 12:33:40;;;;;;;23.38;6.63;;;;;;;;;;4941134;28;20031;-80
2022/01/01 12:36:27;;;;;;;21.15;6.00;;;;;;;;;;4935337;28;20028;-80
2022/01/01 12:38:53;;;;;;;23.05;6.60;;;;;;;;;;4920954;28;20046;-81
2022/01/01 12:41:24;;;;;;;18.08;6.15;;;;;;;;;;4927035;28;20027;-81
2022/01/01 12:43:57;;;;;;;18.27;6.20;;;;;;;;;;4926001;29;20047;-80
2022/01/01 12:46:28;;;;;;;20.63;6.00;;;;;;;;;;4929676;28;20039;-81
2022/01/01 12:48:57;;;;;;;13.00;4.88;;;;;;;;;;4923631;28;20275;-80
2022/01/01 12:51:23;;;;;;;18.35;5.80;;;;;;;;;;4925055;28;20087;-80
2022/01/01 12:53:54;;;;;;;20.20;5.70;;;;;;;;;;4922626;28;20047;-80
2022/01/01 12:56:20;;;;;;;15.20;6.10;;;;;;;;;;4928890;28;20027;-80
2022/01/01 12:58:51;;;;;;;13.50;5.53;;;;;;;;;;4924911;28;20035;-80
2022/01/01 13:01:19;;;;;;;13.43;5.55;;;;;;;;;;4940682;28;20479;-81
2022/01/01 13:03:59;;;;;;;14.38;4.78;;;;;;;;;;4927067;28;20087;-80
2022/01/01 13:06:30;;;;;;;10.93;4.82;;;;;;;;;;4940361;28;20135;-80
2022/01/01 13:09:01;;;;;;;22.95;5.78;;;;;;;;;;4929369;28;20040;-80
2022/01/01 13:11:28;;;;;;;18.65;5.88;;;;;;;;;;4926603;28;20049;-80
2022/01/01 13:14:08;;;;;;;12.45;4.50;;;;;;;;;;4945741;28;20047;-80
2022/01/01 13:16:35;;;;;;;14.52;4.25;;;;;;;;;;4956122;28;20577;-81
2022/01/01 13:19:03;;;;;;;17.77;5.10;;;;;;;;;;4943848;28;20026;-81
2022/01/01 13:21:29;;;;;;;13.98;5.13;;;;;;;;;;4944188;28;20031;-81
2022/01/01 13:23:55;;;;;;;14.82;5.30;;;;;;;;;;4938592;28;20057;-80
2022/01/01 13:26:22;;;;;;;13.50;4.97;;;;;;;;;;4943085;28;20031;-81
2022/01/01 13:28:48;;;;;;;13.80;5.68;;;;;;;;;;4941925;28;20530;-80
2022/01/01 13:31:14;;;;;;;20.85;6.05;;;;;;;;;;4943444;28;20045;-80
2022/01/01 13:33:52;;;;;;;14.27;5.75;;;;;;;;;;4941370;28;20076;-80
2022/01/01 13:36:32;;;;;;;14.55;5.53;;;;;;;;;;4966047;28;20019;-80
2022/01/01 13:38:59;;;;;;;11.43;3.90;;;;;;;;;;4939024;28;20043;-80
2022/01/01 13:41:35;;;;;;;12.95;4.90;;;;;;;;;;4942569;28;20122;-81
2022/01/01 13:44:18;;;;;;;13.45;4.72;;;;;;;;;;4961142;28;20054;-81
2022/01/01 13:46:44;;;;;;;14.80;4.75;;;;;;;;;;4949148;28;20049;-80
2022/01/01 13:49:12;;;;;;;21.02;5.55;;;;;;;;;;4942785;28;20035;-81
2022/01/01 13:51:38;;;;;;;15.57;5.57;;;;;;;;;;4943717;28;20038;-80
2022/01/01 13:54:10;;;;;;;16.00;5.72;;;;;;;;;;4945524;28;20523;-81
2022/01/01 13:56:37;;;;;;;12.90;5.55;;;;;;;;;;4957724;28;20027;-80
2022/01/01 13:59:04;;;;;;;12.10;5.18;;;;;;;;;;4942402;28;20460;-81
2022/01/01 14:01:32;;;;;;;7.70;3.70;;;;;;;;;;4940616;28;20039;-81
2022/01/01 14:03:58;;;;;;;15.38;5.63;;;;;;;;;;4951777;28;20035;-81
2022/01/01 14:06:25;;;;;;;16.65;5.68;;;;;;;;;;4946785;28;20581;-80
2022/01/01 14:08:57;;;;;;;12.73;6.15;;;;;;;;;;4938579;28;20039;-81
2022/01/01 14:11:26;;;;;;;13.60;5.22;;;;;;;;;;4943206;28;20081;-81
2022/01/01 14:14:02;;;;;;;13.82;5.70;;;;;;;;;;4952456;28;20071;-81
2022/01/01 14:16:30;;;;;;;12.65;5.28;;;;;;;;;;4957853;28;20026;-81
2022/01/01 14:18:57;;;;;;;13.73;6.18;;;;;;;;;;4941221;28;20031;-80
2022/01/01 14:21:26;;;;;;;14.85;5.70;;;;;;;;;;4937864;28;20034;-80
2022/01/01 14:23:54;;;;;;;15.23;5.93;;;;;;;;;;4948868;28;20450;-82
2022/01/01 14:26:22;;;;;;;15.48;5.18;;;;;;;;;;4942284;28;20071;-81
2022/01/01 14:28:52;;;;;;;17.92;6.35;;;;;;;;;;4941469;28;20137;-81